sensor_id;sensor_type;location;lat;lon;timestamp;pressure;altitude;pressure_sealevel;temperature;humidity
76124;BME280;65173;48.066;20.976;2023-10-31T00:02:03;99758.69;;;10.91;100.00
76124;BME280;65173;48.066;20.976;2023-10-31T00:05:06;99763.13;;;10.99;100.00
76124;BME280;65173;48.066;20.976;2023-10-31T00:08:08;99756.78;;;10.92;100.00
76124;BME280;65173;48.066;20.976;2023-10-31T00:11:11;99750.28;;;10.81;100.00
76124;BME280;65173;48.066;20.976;2023-10-31T00:14:14;99747.25;;;10.91;100.00
76124;BME280;65173;48.066;20.976;2023-10-31T00:17:32;99749.44;;;10.89;100.00
76124;BME280;65173;48.066;20.976;2023-10-31T00:20:35;99751.47;;;10.71;100.00
76124;BME280;65173;48.066;20.976;2023-10-31T00:23:47;99739.25;;;10.70;100.00
76124;BME280;65173;48.066;20.976;2023-10-31T00:26:50;99738.16;;;10.71;100.00
76124;BME280;65173;48.066;20.976;2023-10-31T00:29:52;99731.00;;;10.63;100.00
76124;BME280;65173;48.066;20.976;2023-10-31T00:32:55;99745.09;;;10.63;100.00
76124;BME280;65173;48.066;20.976;2023-10-31T00:35:57;99741.84;;;10.58;100.00
76124;BME280;65173;48.066;20.976;2023-10-31T00:39:00;99743.94;;;10.52;100.00
76124;BME280;65173;48.066;20.976;2023-10-31T00:42:02;99722.13;;;10.38;100.00
76124;BME280;65173;48.066;20.976;2023-10-31T00:45:05;99721.06;;;10.51;100.00
76124;BME280;65173;48.066;20.976;2023-10-31T00:48:08;99713.25;;;10.67;100.00
76124;BME280;65173;48.066;20.976;2023-10-31T00:51:10;99709.03;;;10.66;100.00
76124;BME280;65173;48.066;20.976;2023-10-31T00:54:13;99697.28;;;10.46;100.00
76124;BME280;65173;48.066;20.976;2023-10-31T00:57:16;99690.34;;;10.54;100.00
76124;BME280;65173;48.066;20.976;2023-10-31T01:00:19;99685.56;;;10.59;100.00
76124;BME280;65173;48.066;20.976;2023-10-31T01:03:21;99688.16;;;10.68;100.00
76124;BME280;65173;48.066;20.976;2023-10-31T01:06:24;99688.50;;;10.66;100.00
76124;BME280;65173;48.066;20.976;2023-10-31T01:09:26;99687.88;;;10.82;100.00
76124;BME280;65173;48.066;20.976;2023-10-31T01:12:29;99700.41;;;10.81;100.00
76124;BME280;65173;48.066;20.976;2023-10-31T01:15:33;99710.72;;;11.03;100.00
76124;BME280;65173;48.066;20.976;2023-10-31T01:18:35;99716.34;;;10.90;100.00
76124;BME280;65173;48.066;20.976;2023-10-31T01:21:38;99722.34;;;10.87;100.00
76124;BME280;65173;48.066;20.976;2023-10-31T01:24:40;99712.75;;;10.73;100.00
76124;BME280;65173;48.066;20.976;2023-10-31T01:27:44;99692.34;;;10.36;100.00
76124;BME280;65173;48.066;20.976;2023-10-31T01:30:46;99672.78;;;10.32;100.00
76124;BME280;65173;48.066;20.976;2023-10-31T01:33:49;99672.06;;;10.43;100.00
76124;BME280;65173;48.066;20.976;2023-10-31T01:36:52;99669.34;;;10.52;100.00
76124;BME280;65173;48.066;20.976;2023-10-31T01:39:54;99663.03;;;10.57;100.00
76124;BME280;65173;48.066;20.976;2023-10-31T01:42:56;99666.59;;;10.61;100.00
76124;BME280;65173;48.066;20.976;2023-10-31T01:45:59;99657.91;;;10.52;100.00
76124;BME280;65173;48.066;20.976;2023-10-31T01:49:02;99649.34;;;10.58;100.00
76124;BME280;65173;48.066;20.976;2023-10-31T01:52:05;99642.88;;;10.47;100.00
76124;BME280;65173;48.066;20.976;2023-10-31T01:55:09;99643.22;;;10.46;100.00
76124;BME280;65173;48.066;20.976;2023-10-31T01:58:12;99637.84;;;10.66;100.00
76124;BME280;65173;48.066;20.976;2023-10-31T02:01:15;99645.38;;;10.64;100.00
76124;BME280;65173;48.066;20.976;2023-10-31T02:04:18;99634.16;;;10.59;100.00
76124;BME280;65173;48.066;20.976;2023-10-31T02:07:20;99643.84;;;10.63;100.00
76124;BME280;65173;48.066;20.976;2023-10-31T02:10:23;99638.75;;;10.70;100.00
76124;BME280;65173;48.066;20.976;2023-10-31T02:13:25;99639.09;;;10.69;100.00
76124;BME280;65173;48.066;20.976;2023-10-31T02:16:28;99630.84;;;10.62;100.00
76124;BME280;65173;48.066;20.976;2023-10-31T02:19:30;99633.56;;;10.74;100.00
76124;BME280;65173;48.066;20.976;2023-10-31T02:22:33;99627.78;;;10.84;100.00
76124;BME280;65173;48.066;20.976;2023-10-31T02:25:35;99631.31;;;10.76;100.00
76124;BME280;65173;48.066;20.976;2023-10-31T02:28:38;99631.47;;;10.59;100.00
76124;BME280;65173;48.066;20.976;2023-10-31T02:31:40;99622.69;;;10.46;100.00
76124;BME280;65173;48.066;20.976;2023-10-31T02:34:44;99613.69;;;10.38;100.00
76124;BME280;65173;48.066;20.976;2023-10-31T02:37:47;99616.72;;;10.28;100.00
76124;BME280;65173;48.066;20.976;2023-10-31T02:40:50;99608.66;;;10.37;100.00
76124;BME280;65173;48.066;20.976;2023-10-31T02:43:52;99613.69;;;10.38;100.00
76124;BME280;65173;48.066;20.976;2023-10-31T02:46:57;99609.88;;;10.39;100.00
76124;BME280;65173;48.066;20.976;2023-10-31T02:50:00;99610.78;;;10.43;100.00
76124;BME280;65173;48.066;20.976;2023-10-31T02:53:02;99613.44;;;10.43;100.00
76124;BME280;65173;48.066;20.976;2023-10-31T02:56:05;99613.13;;;10.45;100.00
76124;BME280;65173;48.066;20.976;2023-10-31T02:59:08;99604.16;;;10.50;100.00
76124;BME280;65173;48.066;20.976;2023-10-31T03:02:10;99606.63;;;10.55;100.00
76124;BME280;65173;48.066;20.976;2023-10-31T03:05:13;99605.88;;;10.66;100.00
76124;BME280;65173;48.066;20.976;2023-10-31T03:08:16;99595.78;;;10.72;100.00
76124;BME280;65173;48.066;20.976;2023-10-31T03:11:26;99594.69;;;10.85;100.00
76124;BME280;65173;48.066;20.976;2023-10-31T03:14:31;99595.34;;;10.94;100.00
76124;BME280;65173;48.066;20.976;2023-10-31T03:17:33;99605.59;;;11.04;100.00
76124;BME280;65173;48.066;20.976;2023-10-31T03:20:36;99591.28;;;11.09;100.00
76124;BME280;65173;48.066;20.976;2023-10-31T03:23:38;99585.81;;;11.18;100.00
76124;BME280;65173;48.066;20.976;2023-10-31T03:26:41;99577.16;;;11.21;100.00
76124;BME280;65173;48.066;20.976;2023-10-31T03:29:43;99578.03;;;11.37;100.00
76124;BME280;65173;48.066;20.976;2023-10-31T03:32:45;99570.03;;;11.37;100.00
76124;BME280;65173;48.066;20.976;2023-10-31T03:35:48;99570.34;;;11.47;100.00
76124;BME280;65173;48.066;20.976;2023-10-31T03:38:50;99567.13;;;11.54;100.00
76124;BME280;65173;48.066;20.976;2023-10-31T03:41:53;99571.81;;;11.45;100.00
76124;BME280;65173;48.066;20.976;2023-10-31T03:44:59;99562.47;;;11.51;100.00
76124;BME280;65173;48.066;20.976;2023-10-31T03:48:01;99563.13;;;11.48;100.00
76124;BME280;65173;48.066;20.976;2023-10-31T03:51:05;99574.13;;;11.46;100.00
76124;BME280;65173;48.066;20.976;2023-10-31T03:54:08;99565.28;;;11.42;100.00
76124;BME280;65173;48.066;20.976;2023-10-31T03:57:10;99559.38;;;11.37;100.00
76124;BME280;65173;48.066;20.976;2023-10-31T04:00:13;99555.81;;;11.45;100.00
76124;BME280;65173;48.066;20.976;2023-10-31T04:03:16;99544.59;;;11.39;100.00
76124;BME280;65173;48.066;20.976;2023-10-31T04:06:19;99544.38;;;11.44;100.00
76124;BME280;65173;48.066;20.976;2023-10-31T04:09:22;99547.34;;;11.55;100.00
76124;BME280;65173;48.066;20.976;2023-10-31T04:12:25;99540.31;;;11.63;100.00
76124;BME280;65173;48.066;20.976;2023-10-31T04:15:27;99530.75;;;11.62;100.00
76124;BME280;65173;48.066;20.976;2023-10-31T04:18:30;99541.88;;;11.76;100.00
76124;BME280;65173;48.066;20.976;2023-10-31T04:21:32;99545.63;;;11.75;100.00
76124;BME280;65173;48.066;20.976;2023-10-31T04:24:35;99530.16;;;11.68;100.00
76124;BME280;65173;48.066;20.976;2023-10-31T04:27:37;99535.94;;;11.70;100.00
76124;BME280;65173;48.066;20.976;2023-10-31T04:30:40;99554.75;;;11.74;100.00
76124;BME280;65173;48.066;20.976;2023-10-31T04:33:42;99547.31;;;11.67;100.00
76124;BME280;65173;48.066;20.976;2023-10-31T04:36:45;99549.06;;;11.75;100.00
76124;BME280;65173;48.066;20.976;2023-10-31T04:39:47;99551.97;;;11.82;100.00
76124;BME280;65173;48.066;20.976;2023-10-31T04:42:49;99545.06;;;11.69;100.00
76124;BME280;65173;48.066;20.976;2023-10-31T04:45:52;99538.19;;;11.68;100.00
76124;BME280;65173;48.066;20.976;2023-10-31T04:48:54;99549.66;;;11.81;100.00
76124;BME280;65173;48.066;20.976;2023-10-31T04:51:57;99561.34;;;11.76;100.00
76124;BME280;65173;48.066;20.976;2023-10-31T04:55:00;99576.44;;;11.72;100.00
76124;BME280;65173;48.066;20.976;2023-10-31T04:58:02;99579.25;;;11.76;100.00
76124;BME280;65173;48.066;20.976;2023-10-31T05:01:08;99566.69;;;11.76;100.00
76124;BME280;65173;48.066;20.976;2023-10-31T05:04:11;99569.34;;;11.64;100.00
76124;BME280;65173;48.066;20.976;2023-10-31T05:07:14;99581.66;;;11.69;100.00
76124;BME280;65173;48.066;20.976;2023-10-31T05:10:17;99577.44;;;11.68;100.00
76124;BME280;65173;48.066;20.976;2023-10-31T05:13:19;99603.25;;;11.88;100.00
76124;BME280;65173;48.066;20.976;2023-10-31T05:16:22;99618.16;;;11.65;100.00
76124;BME280;65173;48.066;20.976;2023-10-31T05:19:24;99619.81;;;11.69;100.00
76124;BME280;65173;48.066;20.976;2023-10-31T05:22:28;99593.16;;;11.57;100.00
76124;BME280;65173;48.066;20.976;2023-10-31T05:25:30;99573.03;;;11.60;100.00
76124;BME280;65173;48.066;20.976;2023-10-31T05:28:33;99565.34;;;11.58;100.00
76124;BME280;65173;48.066;20.976;2023-10-31T05:31:35;99578.91;;;11.53;100.00
76124;BME280;65173;48.066;20.976;2023-10-31T05:34:38;99573.91;;;11.52;100.00
76124;BME280;65173;48.066;20.976;2023-10-31T05:37:40;99582.25;;;11.62;100.00
76124;BME280;65173;48.066;20.976;2023-10-31T05:40:43;99579.03;;;11.57;100.00
76124;BME280;65173;48.066;20.976;2023-10-31T05:43:46;99575.47;;;11.53;100.00
76124;BME280;65173;48.066;20.976;2023-10-31T05:46:48;99579.91;;;11.48;100.00
76124;BME280;65173;48.066;20.976;2023-10-31T05:49:51;99567.16;;;11.42;100.00
76124;BME280;65173;48.066;20.976;2023-10-31T05:52:54;99545.69;;;11.38;100.00
76124;BME280;65173;48.066;20.976;2023-10-31T05:55:56;99556.03;;;11.40;100.00
76124;BME280;65173;48.066;20.976;2023-10-31T05:58:59;99533.69;;;11.44;100.00
76124;BME280;65173;48.066;20.976;2023-10-31T06:02:01;99513.97;;;11.49;100.00
76124;BME280;65173;48.066;20.976;2023-10-31T06:05:04;99530.78;;;11.49;100.00
76124;BME280;65173;48.066;20.976;2023-10-31T06:08:07;99537.31;;;11.64;100.00
76124;BME280;65173;48.066;20.976;2023-10-31T06:11:09;99534.16;;;11.74;100.00
76124;BME280;65173;48.066;20.976;2023-10-31T06:14:15;99529.75;;;11.78;100.00
76124;BME280;65173;48.066;20.976;2023-10-31T06:17:17;99539.81;;;11.85;100.00
76124;BME280;65173;48.066;20.976;2023-10-31T06:20:20;99533.91;;;11.92;100.00
76124;BME280;65173;48.066;20.976;2023-10-31T06:23:22;99526.69;;;11.92;100.00
76124;BME280;65173;48.066;20.976;2023-10-31T06:26:25;99528.09;;;12.02;100.00
76124;BME280;65173;48.066;20.976;2023-10-31T06:29:28;99525.63;;;12.09;100.00
76124;BME280;65173;48.066;20.976;2023-10-31T06:32:53;99519.16;;;12.10;100.00
76124;BME280;65173;48.066;20.976;2023-10-31T06:35:56;99528.06;;;12.14;100.00
76124;BME280;65173;48.066;20.976;2023-10-31T06:38:59;99519.25;;;12.13;100.00
76124;BME280;65173;48.066;20.976;2023-10-31T06:42:01;99522.44;;;12.19;100.00
76124;BME280;65173;48.066;20.976;2023-10-31T06:45:04;99517.25;;;12.10;100.00
76124;BME280;65173;48.066;20.976;2023-10-31T06:48:07;99518.91;;;12.15;100.00
76124;BME280;65173;48.066;20.976;2023-10-31T06:51:11;99511.34;;;12.17;100.00
76124;BME280;65173;48.066;20.976;2023-10-31T06:54:14;99516.75;;;12.21;100.00
76124;BME280;65173;48.066;20.976;2023-10-31T06:57:16;99520.66;;;12.39;100.00
76124;BME280;65173;48.066;20.976;2023-10-31T07:00:19;99516.03;;;12.36;100.00
76124;BME280;65173;48.066;20.976;2023-10-31T07:03:22;99524.41;;;12.50;100.00
76124;BME280;65173;48.066;20.976;2023-10-31T07:06:24;99533.47;;;12.61;100.00
76124;BME280;65173;48.066;20.976;2023-10-31T07:09:27;99534.56;;;12.60;100.00
76124;BME280;65173;48.066;20.976;2023-10-31T07:12:29;99540.53;;;12.69;100.00
76124;BME280;65173;48.066;20.976;2023-10-31T07:15:32;99543.47;;;12.80;100.00
76124;BME280;65173;48.066;20.976;2023-10-31T07:18:34;99537.53;;;12.71;100.00
76124;BME280;65173;48.066;20.976;2023-10-31T07:21:37;99541.66;;;12.84;100.00
76124;BME280;65173;48.066;20.976;2023-10-31T07:24:39;99546.47;;;12.94;100.00
76124;BME280;65173;48.066;20.976;2023-10-31T07:27:41;99552.53;;;13.07;100.00
76124;BME280;65173;48.066;20.976;2023-10-31T07:30:44;99553.75;;;13.25;100.00
76124;BME280;65173;48.066;20.976;2023-10-31T07:33:46;99560.44;;;13.35;100.00
76124;BME280;65173;48.066;20.976;2023-10-31T07:36:49;99553.38;;;13.27;100.00
76124;BME280;65173;48.066;20.976;2023-10-31T07:39:51;99555.66;;;13.25;100.00
76124;BME280;65173;48.066;20.976;2023-10-31T07:42:54;99561.41;;;13.27;100.00
76124;BME280;65173;48.066;20.976;2023-10-31T07:45:56;99566.50;;;13.32;100.00
76124;BME280;65173;48.066;20.976;2023-10-31T07:48:59;99561.41;;;13.27;100.00
76124;BME280;65173;48.066;20.976;2023-10-31T07:52:01;99553.13;;;13.32;100.00
76124;BME280;65173;48.066;20.976;2023-10-31T07:55:04;99549.06;;;13.38;100.00
76124;BME280;65173;48.066;20.976;2023-10-31T07:58:06;99538.97;;;13.31;100.00
76124;BME280;65173;48.066;20.976;2023-10-31T08:01:09;99540.50;;;13.32;100.00
76124;BME280;65173;48.066;20.976;2023-10-31T08:04:14;99540.72;;;13.24;100.00
76124;BME280;65173;48.066;20.976;2023-10-31T08:07:18;99524.66;;;13.24;100.00
76124;BME280;65173;48.066;20.976;2023-10-31T08:10:21;99525.41;;;13.08;100.00
76124;BME280;65173;48.066;20.976;2023-10-31T08:13:23;99515.06;;;13.07;100.00
76124;BME280;65173;48.066;20.976;2023-10-31T08:16:26;99504.00;;;13.08;100.00
76124;BME280;65173;48.066;20.976;2023-10-31T08:19:30;99503.84;;;13.01;100.00
76124;BME280;65173;48.066;20.976;2023-10-31T08:22:32;99502.22;;;12.97;100.00
76124;BME280;65173;48.066;20.976;2023-10-31T08:25:35;99497.31;;;12.83;100.00
76124;BME280;65173;48.066;20.976;2023-10-31T08:28:38;99489.56;;;12.78;100.00
76124;BME280;65173;48.066;20.976;2023-10-31T08:31:40;99480.50;;;12.67;100.00
76124;BME280;65173;48.066;20.976;2023-10-31T08:34:43;99490.09;;;12.68;100.00
76124;BME280;65173;48.066;20.976;2023-10-31T08:37:45;99484.22;;;12.62;100.00
76124;BME280;65173;48.066;20.976;2023-10-31T08:40:47;99479.22;;;12.61;100.00
76124;BME280;65173;48.066;20.976;2023-10-31T08:43:51;99457.38;;;12.59;100.00
76124;BME280;65173;48.066;20.976;2023-10-31T08:46:53;99459.19;;;12.55;100.00
76124;BME280;65173;48.066;20.976;2023-10-31T08:49:56;99443.59;;;12.57;100.00
76124;BME280;65173;48.066;20.976;2023-10-31T08:52:58;99437.66;;;12.63;100.00
76124;BME280;65173;48.066;20.976;2023-10-31T08:56:04;99441.75;;;12.76;100.00
76124;BME280;65173;48.066;20.976;2023-10-31T08:59:06;99435.56;;;12.88;100.00
76124;BME280;65173;48.066;20.976;2023-10-31T09:02:09;99435.97;;;12.90;100.00
76124;BME280;65173;48.066;20.976;2023-10-31T09:05:11;99432.94;;;13.27;100.00
76124;BME280;65173;48.066;20.976;2023-10-31T09:08:14;99425.44;;;13.51;100.00
76124;BME280;65173;48.066;20.976;2023-10-31T09:11:17;99411.84;;;13.60;100.00
76124;BME280;65173;48.066;20.976;2023-10-31T09:14:20;99411.69;;;13.72;100.00
76124;BME280;65173;48.066;20.976;2023-10-31T09:17:22;99418.38;;;13.63;100.00
76124;BME280;65173;48.066;20.976;2023-10-31T09:20:25;99400.22;;;13.52;100.00
76124;BME280;65173;48.066;20.976;2023-10-31T09:23:27;99419.56;;;13.65;100.00
76124;BME280;65173;48.066;20.976;2023-10-31T09:26:31;99409.97;;;13.64;100.00
76124;BME280;65173;48.066;20.976;2023-10-31T09:29:34;99406.31;;;13.72;100.00
76124;BME280;65173;48.066;20.976;2023-10-31T09:32:36;99436.59;;;13.96;100.00
76124;BME280;65173;48.066;20.976;2023-10-31T09:35:39;99426.78;;;14.03;100.00
76124;BME280;65173;48.066;20.976;2023-10-31T09:38:42;99428.75;;;14.06;100.00
76124;BME280;65173;48.066;20.976;2023-10-31T09:41:44;99431.41;;;14.06;100.00
76124;BME280;65173;48.066;20.976;2023-10-31T09:44:47;99436.56;;;14.15;100.00
76124;BME280;65173;48.066;20.976;2023-10-31T09:47:49;99416.59;;;14.35;100.00
76124;BME280;65173;48.066;20.976;2023-10-31T09:50:52;99411.13;;;14.51;100.00
76124;BME280;65173;48.066;20.976;2023-10-31T09:53:59;99410.94;;;14.63;100.00
76124;BME280;65173;48.066;20.976;2023-10-31T09:57:04;99399.38;;;14.59;100.00
76124;BME280;65173;48.066;20.976;2023-10-31T10:00:07;99398.03;;;14.46;100.00
76124;BME280;65173;48.066;20.976;2023-10-31T10:03:13;99384.41;;;14.35;100.00
76124;BME280;65173;48.066;20.976;2023-10-31T10:06:16;99369.53;;;14.38;100.00
76124;BME280;65173;48.066;20.976;2023-10-31T10:09:23;99345.94;;;14.47;100.00
76124;BME280;65173;48.066;20.976;2023-10-31T10:12:26;99338.81;;;14.58;100.00
76124;BME280;65173;48.066;20.976;2023-10-31T10:15:28;99332.66;;;14.84;100.00
76124;BME280;65173;48.066;20.976;2023-10-31T10:18:32;99326.75;;;15.35;100.00
76124;BME280;65173;48.066;20.976;2023-10-31T10:21:48;99328.97;;;15.62;100.00
76124;BME280;65173;48.066;20.976;2023-10-31T10:24:51;99327.13;;;15.70;100.00
76124;BME280;65173;48.066;20.976;2023-10-31T10:27:54;99321.19;;;15.94;100.00
76124;BME280;65173;48.066;20.976;2023-10-31T10:30:56;99313.91;;;15.98;100.00
76124;BME280;65173;48.066;20.976;2023-10-31T10:33:59;99312.97;;;16.90;100.00
76124;BME280;65173;48.066;20.976;2023-10-31T10:37:05;99311.72;;;16.70;100.00
76124;BME280;65173;48.066;20.976;2023-10-31T10:40:10;99297.78;;;16.57;100.00
76124;BME280;65173;48.066;20.976;2023-10-31T10:43:21;99304.22;;;16.38;100.00
76124;BME280;65173;48.066;20.976;2023-10-31T10:46:25;99295.78;;;16.40;100.00
76124;BME280;65173;48.066;20.976;2023-10-31T10:49:33;99289.28;;;16.44;100.00
76124;BME280;65173;48.066;20.976;2023-10-31T10:52:54;99289.66;;;16.43;100.00
76124;BME280;65173;48.066;20.976;2023-10-31T10:56:00;99294.19;;;16.35;100.00
76124;BME280;65173;48.066;20.976;2023-10-31T10:59:18;99304.09;;;16.20;100.00
76124;BME280;65173;48.066;20.976;2023-10-31T11:02:22;99291.75;;;16.12;100.00
76124;BME280;65173;48.066;20.976;2023-10-31T11:05:25;99285.22;;;16.13;100.00
76124;BME280;65173;48.066;20.976;2023-10-31T11:08:29;99276.38;;;16.13;100.00
76124;BME280;65173;48.066;20.976;2023-10-31T11:11:32;99289.81;;;16.09;100.00
76124;BME280;65173;48.066;20.976;2023-10-31T11:14:35;99275.88;;;15.96;100.00
76124;BME280;65173;48.066;20.976;2023-10-31T11:17:40;99275.13;;;15.92;100.00
76124;BME280;65173;48.066;20.976;2023-10-31T11:20:44;99268.59;;;15.93;100.00
76124;BME280;65173;48.066;20.976;2023-10-31T11:23:56;99269.38;;;15.97;100.00
76124;BME280;65173;48.066;20.976;2023-10-31T11:27:05;99247.50;;;15.99;100.00
76124;BME280;65173;48.066;20.976;2023-10-31T11:30:20;99252.53;;;16.04;100.00
76124;BME280;65173;48.066;20.976;2023-10-31T11:33:24;99251.41;;;16.09;100.00
76124;BME280;65173;48.066;20.976;2023-10-31T11:36:26;99241.88;;;16.18;100.00
76124;BME280;65173;48.066;20.976;2023-10-31T11:39:32;99231.94;;;16.33;100.00
76124;BME280;65173;48.066;20.976;2023-10-31T11:42:36;99234.44;;;16.70;100.00
76124;BME280;65173;48.066;20.976;2023-10-31T11:45:42;99236.50;;;17.02;100.00
76124;BME280;65173;48.066;20.976;2023-10-31T11:48:52;99228.34;;;16.87;100.00
76124;BME280;65173;48.066;20.976;2023-10-31T11:51:55;99215.66;;;16.84;100.00
76124;BME280;65173;48.066;20.976;2023-10-31T11:54:57;99208.72;;;16.76;100.00
76124;BME280;65173;48.066;20.976;2023-10-31T12:01:17;99180.94;;;16.54;100.00
76124;BME280;65173;48.066;20.976;2023-10-31T12:04:23;99174.47;;;16.66;100.00
76124;BME280;65173;48.066;20.976;2023-10-31T12:07:26;99157.59;;;16.73;100.00
76124;BME280;65173;48.066;20.976;2023-10-31T12:10:29;99150.69;;;16.89;100.00
76124;BME280;65173;48.066;20.976;2023-10-31T12:13:39;99131.09;;;17.07;100.00
76124;BME280;65173;48.066;20.976;2023-10-31T12:16:42;99121.13;;;17.35;100.00
76124;BME280;65173;48.066;20.976;2023-10-31T12:19:45;99115.69;;;17.60;100.00
76124;BME280;65173;48.066;20.976;2023-10-31T12:23:01;99102.56;;;17.87;100.00
76124;BME280;65173;48.066;20.976;2023-10-31T12:26:04;99101.34;;;18.06;100.00
76124;BME280;65173;48.066;20.976;2023-10-31T12:29:16;99089.84;;;19.20;100.00
76124;BME280;65173;48.066;20.976;2023-10-31T12:32:19;99092.75;;;19.39;100.00
76124;BME280;65173;48.066;20.976;2023-10-31T12:35:23;99088.72;;;20.26;100.00
76124;BME280;65173;48.066;20.976;2023-10-31T12:38:26;99068.66;;;19.93;100.00
76124;BME280;65173;48.066;20.976;2023-10-31T12:41:29;99065.91;;;20.27;100.00
76124;BME280;65173;48.066;20.976;2023-10-31T12:44:32;99062.97;;;20.15;100.00
76124;BME280;65173;48.066;20.976;2023-10-31T12:47:35;99051.75;;;20.47;100.00
76124;BME280;65173;48.066;20.976;2023-10-31T12:50:38;99048.59;;;19.57;100.00
76124;BME280;65173;48.066;20.976;2023-10-31T12:53:51;99053.31;;;19.04;100.00
76124;BME280;65173;48.066;20.976;2023-10-31T12:57:01;99051.28;;;18.71;100.00
76124;BME280;65173;48.066;20.976;2023-10-31T13:00:06;99044.53;;;18.38;100.00
76124;BME280;65173;48.066;20.976;2023-10-31T13:03:14;99034.16;;;18.29;100.00
76124;BME280;65173;48.066;20.976;2023-10-31T13:06:18;99021.53;;;18.19;100.00
76124;BME280;65173;48.066;20.976;2023-10-31T13:09:20;99035.38;;;18.21;100.00
76124;BME280;65173;48.066;20.976;2023-10-31T13:12:23;99025.78;;;18.17;100.00
76124;BME280;65173;48.066;20.976;2023-10-31T13:15:29;99021.91;;;18.21;100.00
76124;BME280;65173;48.066;20.976;2023-10-31T13:18:31;99015.81;;;18.07;100.00
76124;BME280;65173;48.066;20.976;2023-10-31T13:21:34;99008.91;;;17.98;100.00
76124;BME280;65173;48.066;20.976;2023-10-31T13:24:36;98991.84;;;18.19;100.00
76124;BME280;65173;48.066;20.976;2023-10-31T13:27:44;98982.13;;;18.36;100.00
76124;BME280;65173;48.066;20.976;2023-10-31T13:30:46;98974.91;;;18.19;100.00
76124;BME280;65173;48.066;20.976;2023-10-31T13:33:51;98980.69;;;18.21;100.00
76124;BME280;65173;48.066;20.976;2023-10-31T13:36:53;98979.19;;;18.13;100.00
76124;BME280;65173;48.066;20.976;2023-10-31T13:39:56;98988.19;;;17.88;100.00
76124;BME280;65173;48.066;20.976;2023-10-31T13:42:59;98961.72;;;17.65;100.00
76124;BME280;65173;48.066;20.976;2023-10-31T13:46:01;98963.31;;;17.49;100.00
76124;BME280;65173;48.066;20.976;2023-10-31T13:49:05;98962.91;;;17.54;100.00
76124;BME280;65173;48.066;20.976;2023-10-31T13:52:09;98964.84;;;17.53;100.00
76124;BME280;65173;48.066;20.976;2023-10-31T13:55:11;98950.66;;;17.35;100.00
76124;BME280;65173;48.066;20.976;2023-10-31T13:58:14;98942.25;;;17.19;100.00
76124;BME280;65173;48.066;20.976;2023-10-31T14:01:16;98936.09;;;17.18;100.00
76124;BME280;65173;48.066;20.976;2023-10-31T14:04:19;98955.66;;;17.29;100.00
76124;BME280;65173;48.066;20.976;2023-10-31T14:07:22;98979.53;;;17.20;100.00
76124;BME280;65173;48.066;20.976;2023-10-31T14:10:25;99043.81;;;16.97;100.00
76124;BME280;65173;48.066;20.976;2023-10-31T14:13:28;99141.44;;;16.69;100.00
76124;BME280;65173;48.066;20.976;2023-10-31T14:16:37;99237.13;;;16.63;100.00
76124;BME280;65173;48.066;20.976;2023-10-31T14:19:43;99315.50;;;14.92;100.00
76124;BME280;65173;48.066;20.976;2023-10-31T14:22:49;99276.38;;;14.57;100.00
76124;BME280;65173;48.066;20.976;2023-10-31T14:25:52;99261.22;;;14.69;100.00
76124;BME280;65173;48.066;20.976;2023-10-31T14:28:55;99256.28;;;14.74;100.00
76124;BME280;65173;48.066;20.976;2023-10-31T14:32:05;99234.75;;;14.71;100.00
76124;BME280;65173;48.066;20.976;2023-10-31T14:35:08;99230.16;;;14.68;100.00
76124;BME280;65173;48.066;20.976;2023-10-31T14:38:10;99209.47;;;14.68;100.00
76124;BME280;65173;48.066;20.976;2023-10-31T14:41:14;99206.91;;;14.79;100.00
76124;BME280;65173;48.066;20.976;2023-10-31T14:44:16;99224.13;;;14.78;100.00
76124;BME280;65173;48.066;20.976;2023-10-31T14:47:20;99203.06;;;14.80;100.00
76124;BME280;65173;48.066;20.976;2023-10-31T14:50:23;99218.03;;;14.81;100.00
76124;BME280;65173;48.066;20.976;2023-10-31T14:53:25;99213.81;;;14.80;100.00
76124;BME280;65173;48.066;20.976;2023-10-31T14:56:28;99220.06;;;14.91;100.00
76124;BME280;65173;48.066;20.976;2023-10-31T14:59:32;99228.03;;;14.84;100.00
76124;BME280;65173;48.066;20.976;2023-10-31T15:02:34;99208.13;;;14.85;100.00
76124;BME280;65173;48.066;20.976;2023-10-31T15:05:37;99187.53;;;14.96;100.00
76124;BME280;65173;48.066;20.976;2023-10-31T15:08:39;99183.13;;;14.77;100.00
76124;BME280;65173;48.066;20.976;2023-10-31T15:11:42;99187.81;;;14.84;100.00
76124;BME280;65173;48.066;20.976;2023-10-31T15:14:44;99207.94;;;14.71;100.00
76124;BME280;65173;48.066;20.976;2023-10-31T15:17:47;99199.84;;;14.64;100.00
76124;BME280;65173;48.066;20.976;2023-10-31T15:20:55;99188.75;;;14.65;100.00
76124;BME280;65173;48.066;20.976;2023-10-31T15:23:59;99186.75;;;14.58;100.00
76124;BME280;65173;48.066;20.976;2023-10-31T15:27:02;99183.38;;;14.35;100.00
76124;BME280;65173;48.066;20.976;2023-10-31T15:30:08;99200.50;;;14.27;100.00
76124;BME280;65173;48.066;20.976;2023-10-31T15:33:11;99226.44;;;14.19;100.00
76124;BME280;65173;48.066;20.976;2023-10-31T15:36:14;99228.97;;;14.09;100.00
76124;BME280;65173;48.066;20.976;2023-10-31T15:39:16;99230.00;;;14.01;100.00
76124;BME280;65173;48.066;20.976;2023-10-31T15:42:19;99236.84;;;13.98;100.00
76124;BME280;65173;48.066;20.976;2023-10-31T15:45:21;99212.47;;;14.07;100.00
76124;BME280;65173;48.066;20.976;2023-10-31T15:48:24;99183.38;;;14.35;100.00
76124;BME280;65173;48.066;20.976;2023-10-31T15:51:28;99146.72;;;14.13;100.00